sensor_id;sensor_type;location;lat;lon;timestamp;pressure;altitude;pressure_sealevel;temperature;humidity
36354;BME280;22383;51.114;13.666;2023-03-04T00:00:10;67078.44;;;-1.07;100.00
36354;BME280;22383;51.114;13.666;2023-03-04T00:02:38;67081.63;;;-1.07;100.00
36354;BME280;22383;51.114;13.666;2023-03-04T00:05:05;67084.41;;;-1.04;100.00
36354;BME280;22383;51.114;13.666;2023-03-04T00:07:33;67082.38;;;-1.04;100.00
36354;BME280;22383;51.114;13.666;2023-03-04T00:10:00;67082.38;;;-1.04;100.00
36354;BME280;22383;51.114;13.666;2023-03-04T00:12:27;67087.22;;;-1.02;100.00
36354;BME280;22383;51.114;13.666;2023-03-04T00:15:00;67087.78;;;-1.01;100.00
36354;BME280;22383;51.114;13.666;2023-03-04T00:17:27;67088.34;;;-1.01;100.00
36354;BME280;22383;51.114;13.666;2023-03-04T00:19:57;67085.75;;;-1.01;100.00
36354;BME280;22383;51.114;13.666;2023-03-04T00:22:27;67083.16;;;-1.01;100.00
36354;BME280;22383;51.114;13.666;2023-03-04T00:24:57;67085.75;;;-1.01;100.00
36354;BME280;22383;51.114;13.666;2023-03-04T00:27:24;67088.34;;;-1.01;100.00
36354;BME280;22383;51.114;13.666;2023-03-04T00:29:54;67090.03;;;-0.99;100.00
36354;BME280;22383;51.114;13.666;2023-03-04T00:32:22;67085.41;;;-0.99;100.00
36354;BME280;22383;51.114;13.666;2023-03-04T00:34:49;67089.13;;;-0.98;100.00
36354;BME280;22383;51.114;13.666;2023-03-04T00:37:17;67091.16;;;-0.98;100.00
36354;BME280;22383;51.114;13.666;2023-03-04T00:39:44;67088.56;;;-0.98;100.00
36354;BME280;22383;51.114;13.666;2023-03-04T00:42:12;67087.09;;;-0.97;100.00
36354;BME280;22383;51.114;13.666;2023-03-04T00:44:39;67092.28;;;-0.97;100.00
36354;BME280;22383;51.114;13.666;2023-03-04T00:47:06;67090.81;;;-0.96;100.00
36354;BME280;22383;51.114;13.666;2023-03-04T00:49:34;67093.97;;;-0.96;100.00
36354;BME280;22383;51.114;13.666;2023-03-04T00:52:07;67093.41;;;-0.96;100.00
36354;BME280;22383;51.114;13.666;2023-03-04T00:54:37;67048.91;;;-0.94;100.00
36354;BME280;22383;51.114;13.666;2023-03-04T00:57:07;67095.31;;;-0.92;100.00
36354;BME280;22383;51.114;13.666;2023-03-04T00:59:34;67096.22;;;-0.93;100.00
36354;BME280;22383;51.114;13.666;2023-03-04T01:02:01;67095.84;;;-0.91;100.00
36354;BME280;22383;51.114;13.666;2023-03-04T01:04:29;67097.91;;;-0.92;100.00
36354;BME280;22383;51.114;13.666;2023-03-04T01:06:58;67094.75;;;-0.92;100.00
36354;BME280;22383;51.114;13.666;2023-03-04T01:09:28;67090.66;;;-0.91;100.00
36354;BME280;22383;51.114;13.666;2023-03-04T01:11:55;67099.59;;;-0.90;100.00
36354;BME280;22383;51.114;13.666;2023-03-04T01:14:23;67093.06;;;-0.94;100.00
36354;BME280;22383;51.114;13.666;2023-03-04T01:16:50;67093.97;;;-0.96;100.00
36354;BME280;22383;51.114;13.666;2023-03-04T01:19:18;67091.38;;;-0.96;100.00
36354;BME280;22383;51.114;13.666;2023-03-04T01:21:45;67091.16;;;-0.98;100.00
36354;BME280;22383;51.114;13.666;2023-03-04T01:24:14;67087.09;;;-0.97;100.00
36354;BME280;22383;51.114;13.666;2023-03-04T01:26:42;67090.81;;;-0.96;100.00
36354;BME280;22383;51.114;13.666;2023-03-04T01:29:09;67089.69;;;-0.97;100.00
36354;BME280;22383;51.114;13.666;2023-03-04T01:31:36;67087.44;;;-0.99;100.00
36354;BME280;22383;51.114;13.666;2023-03-04T01:34:04;67085.75;;;-1.01;100.00
36354;BME280;22383;51.114;13.666;2023-03-04T01:36:32;67089.13;;;-0.98;100.00
36354;BME280;22383;51.114;13.666;2023-03-04T01:38:59;67090.59;;;-0.99;100.00
36354;BME280;22383;51.114;13.666;2023-03-04T01:41:27;67086.88;;;-1.00;100.00
36354;BME280;22383;51.114;13.666;2023-03-04T01:43:55;67087.66;;;-0.97;100.00
36354;BME280;22383;51.114;13.666;2023-03-04T01:46:23;67046.09;;;-0.97;100.00
36354;BME280;22383;51.114;13.666;2023-03-04T01:48:51;67093.41;;;-0.96;100.00
36354;BME280;22383;51.114;13.666;2023-03-04T01:51:19;67089.69;;;-0.97;100.00
36354;BME280;22383;51.114;13.666;2023-03-04T01:53:48;67094.88;;;-0.97;100.00
36354;BME280;22383;51.114;13.666;2023-03-04T01:56:22;67090.03;;;-0.99;100.00
36354;BME280;22383;51.114;13.666;2023-03-04T01:59:10;67085.41;;;-0.99;100.00
36354;BME280;22383;51.114;13.666;2023-03-04T02:01:40;67090.59;;;-0.99;100.00
36354;BME280;22383;51.114;13.666;2023-03-04T02:04:10;67089.13;;;-0.98;100.00
36354;BME280;22383;51.114;13.666;2023-03-04T02:06:40;67088.56;;;-0.98;100.00
36354;BME280;22383;51.114;13.666;2023-03-04T02:09:08;67090.81;;;-0.96;100.00
36354;BME280;22383;51.114;13.666;2023-03-04T02:11:37;67090.81;;;-0.96;100.00
36354;BME280;22383;51.114;13.666;2023-03-04T02:14:05;67096.22;;;-0.93;100.00
36354;BME280;22383;51.114;13.666;2023-03-04T02:16:33;67094.75;;;-0.92;100.00
36354;BME280;22383;51.114;13.666;2023-03-04T02:19:01;67093.25;;;-0.91;100.00
36354;BME280;22383;51.114;13.666;2023-03-04T02:21:29;67096.44;;;-0.91;100.00
36354;BME280;22383;51.114;13.666;2023-03-04T02:24:13;67096.75;;;-0.93;100.00
36354;BME280;22383;51.114;13.666;2023-03-04T02:26:43;67092.16;;;-0.92;100.00
36354;BME280;22383;51.114;13.666;2023-03-04T02:29:14;67096.97;;;-0.90;100.00
36354;BME280;22383;51.114;13.666;2023-03-04T02:31:48;67096.44;;;-0.91;100.00
36354;BME280;22383;51.114;13.666;2023-03-04T02:34:25;67095.31;;;-0.92;100.00
36354;BME280;22383;51.114;13.666;2023-03-04T02:36:55;67094.38;;;-0.90;100.00
36354;BME280;22383;51.114;13.666;2023-03-04T02:39:35;67096.44;;;-0.91;100.00
36354;BME280;22383;51.114;13.666;2023-03-04T02:42:06;67094.75;;;-0.92;100.00
36354;BME280;22383;51.114;13.666;2023-03-04T02:44:37;67096.44;;;-0.91;100.00
36354;BME280;22383;51.114;13.666;2023-03-04T02:47:08;67093.25;;;-0.91;100.00
36354;BME280;22383;51.114;13.666;2023-03-04T02:49:38;67100.13;;;-0.90;100.00
36354;BME280;22383;51.114;13.666;2023-03-04T02:52:18;67093.63;;;-0.93;100.00
36354;BME280;22383;51.114;13.666;2023-03-04T02:54:47;67101.06;;;-0.91;100.00
36354;BME280;22383;51.114;13.666;2023-03-04T02:57:15;67092.34;;;-0.90;100.00
36354;BME280;22383;51.114;13.666;2023-03-04T02:59:47;67095.53;;;-0.89;100.00
36354;BME280;22383;51.114;13.666;2023-03-04T03:02:19;67100.13;;;-0.90;100.00
36354;BME280;22383;51.114;13.666;2023-03-04T03:04:46;67096.44;;;-0.91;100.00
36354;BME280;22383;51.114;13.666;2023-03-04T03:07:17;67103.31;;;-0.89;100.00
36354;BME280;22383;51.114;13.666;2023-03-04T03:09:45;67091.56;;;-0.93;100.00
36354;BME280;22383;51.114;13.666;2023-03-04T03:12:12;67091.56;;;-0.93;100.00
36354;BME280;22383;51.114;13.666;2023-03-04T03:14:39;67096.22;;;-0.93;100.00
36354;BME280;22383;51.114;13.666;2023-03-04T03:17:09;67096.75;;;-0.93;100.00
36354;BME280;22383;51.114;13.666;2023-03-04T03:19:37;67094.16;;;-0.93;100.00
36354;BME280;22383;51.114;13.666;2023-03-04T03:22:06;67094.75;;;-0.92;100.00
36354;BME280;22383;51.114;13.666;2023-03-04T03:24:34;67091.00;;;-0.93;100.00
36354;BME280;22383;51.114;13.666;2023-03-04T03:27:01;67097.34;;;-0.92;100.00
36354;BME280;22383;51.114;13.666;2023-03-04T03:29:30;67092.50;;;-0.94;100.00
36354;BME280;22383;51.114;13.666;2023-03-04T03:31:58;67093.25;;;-0.91;100.00
36354;BME280;22383;51.114;13.666;2023-03-04T03:34:25;67095.09;;;-0.94;100.00
36354;BME280;22383;51.114;13.666;2023-03-04T03:36:53;67090.25;;;-0.97;100.00
36354;BME280;22383;51.114;13.666;2023-03-04T03:39:21;67087.66;;;-0.97;100.00
36354;BME280;22383;51.114;13.666;2023-03-04T03:41:48;67091.16;;;-0.98;100.00
36354;BME280;22383;51.114;13.666;2023-03-04T03:44:16;67084.84;;;-0.99;100.00
36354;BME280;22383;51.114;13.666;2023-03-04T03:46:44;67090.03;;;-0.99;100.00
36354;BME280;22383;51.114;13.666;2023-03-04T03:49:13;67086.88;;;-1.00;100.00
36354;BME280;22383;51.114;13.666;2023-03-04T03:51:40;67091.16;;;-0.98;100.00
36354;BME280;22383;51.114;13.666;2023-03-04T03:54:08;67090.59;;;-0.99;100.00
36354;BME280;22383;51.114;13.666;2023-03-04T03:56:35;67091.16;;;-0.98;100.00
36354;BME280;22383;51.114;13.666;2023-03-04T03:59:03;67090.03;;;-0.99;100.00
36354;BME280;22383;51.114;13.666;2023-03-04T04:01:30;67088.00;;;-0.99;100.00
36354;BME280;22383;51.114;13.666;2023-03-04T04:03:59;67089.31;;;-0.95;100.00
36354;BME280;22383;51.114;13.666;2023-03-04T04:06:27;67094.53;;;-0.95;100.00
36354;BME280;22383;51.114;13.666;2023-03-04T04:08:54;67093.06;;;-0.94;100.00
36354;BME280;22383;51.114;13.666;2023-03-04T04:11:22;67090.47;;;-0.94;100.00
36354;BME280;22383;51.114;13.666;2023-03-04T04:13:49;67094.16;;;-0.93;100.00
36354;BME280;22383;51.114;13.666;2023-03-04T04:16:17;67098.44;;;-0.91;100.00
36354;BME280;22383;51.114;13.666;2023-03-04T04:18:44;67100.38;;;-0.87;100.00
36354;BME280;22383;51.114;13.666;2023-03-04T04:21:13;67100.91;;;-0.87;100.00
36354;BME280;22383;51.114;13.666;2023-03-04T04:23:40;67104.84;;;-0.83;100.00
36354;BME280;22383;51.114;13.666;2023-03-04T04:26:08;67111.03;;;-0.78;100.00
36354;BME280;22383;51.114;13.666;2023-03-04T04:28:35;67117.00;;;-0.74;100.00
36354;BME280;22383;51.114;13.666;2023-03-04T04:31:06;67115.53;;;-0.73;100.00
36354;BME280;22383;51.114;13.666;2023-03-04T04:33:35;67116.44;;;-0.75;100.00
36354;BME280;22383;51.114;13.666;2023-03-04T04:36:03;67118.13;;;-0.73;100.00
36354;BME280;22383;51.114;13.666;2023-03-04T04:38:31;67113.47;;;-0.73;100.00
36354;BME280;22383;51.114;13.666;2023-03-04T04:40:58;67118.31;;;-0.71;100.00
36354;BME280;22383;51.114;13.666;2023-03-04T04:43:26;67117.19;;;-0.72;100.00
36354;BME280;22383;51.114;13.666;2023-03-04T04:45:53;67117.78;;;-0.71;100.00
36354;BME280;22383;51.114;13.666;2023-03-04T04:48:21;67116.09;;;-0.73;100.00
36354;BME280;22383;51.114;13.666;2023-03-04T04:50:53;67114.03;;;-0.72;100.00
36354;BME280;22383;51.114;13.666;2023-03-04T04:53:21;67118.31;;;-0.71;100.00
36354;BME280;22383;51.114;13.666;2023-03-04T04:55:49;67122.59;;;-0.69;100.00
36354;BME280;22383;51.114;13.666;2023-03-04T04:58:16;67121.13;;;-0.68;100.00
36354;BME280;22383;51.114;13.666;2023-03-04T05:00:43;67121.13;;;-0.68;100.00
36354;BME280;22383;51.114;13.666;2023-03-04T05:03:11;67121.69;;;-0.68;100.00
36354;BME280;22383;51.114;13.666;2023-03-04T05:05:39;67125.06;;;-0.65;100.00
36354;BME280;22383;51.114;13.666;2023-03-04T05:08:06;67126.53;;;-0.66;100.00
36354;BME280;22383;51.114;13.666;2023-03-04T05:10:33;67128.78;;;-0.64;100.00
36354;BME280;22383;51.114;13.666;2023-03-04T05:13:01;67123.03;;;-0.64;100.00
36354;BME280;22383;51.114;13.666;2023-03-04T05:15:28;67127.31;;;-0.63;100.00
36354;BME280;22383;51.114;13.666;2023-03-04T05:17:56;67122.13;;;-0.63;100.00
36354;BME280;22383;51.114;13.666;2023-03-04T05:20:23;67127.31;;;-0.63;100.00
36354;BME280;22383;51.114;13.666;2023-03-04T05:22:51;67085.38;;;-0.61;100.00
36354;BME280;22383;51.114;13.666;2023-03-04T05:25:19;67127.88;;;-0.62;100.00
36354;BME280;22383;51.114;13.666;2023-03-04T05:27:46;67122.69;;;-0.62;100.00
36354;BME280;22383;51.114;13.666;2023-03-04T05:30:19;67130.13;;;-0.60;100.00
36354;BME280;22383;51.114;13.666;2023-03-04T05:32:51;67131.25;;;-0.59;100.00
36354;BME280;22383;51.114;13.666;2023-03-04T05:35:18;67126.97;;;-0.61;100.00
36354;BME280;22383;51.114;13.666;2023-03-04T05:37:46;67126.06;;;-0.59;100.00
36354;BME280;22383;51.114;13.666;2023-03-04T05:40:13;67130.69;;;-0.60;100.00
36354;BME280;22383;51.114;13.666;2023-03-04T05:42:41;67138.13;;;-0.58;100.00
36354;BME280;22383;51.114;13.666;2023-03-04T05:45:08;67135.53;;;-0.58;100.00
36354;BME280;22383;51.114;13.666;2023-03-04T05:47:36;67135.53;;;-0.58;100.00
36354;BME280;22383;51.114;13.666;2023-03-04T05:50:03;67137.78;;;-0.55;100.00
36354;BME280;22383;51.114;13.666;2023-03-04T05:52:31;67135.19;;;-0.55;100.00
36354;BME280;22383;51.114;13.666;2023-03-04T05:54:59;67134.25;;;-0.54;100.00
36354;BME280;22383;51.114;13.666;2023-03-04T05:57:27;67132.78;;;-0.53;100.00
36354;BME280;22383;51.114;13.666;2023-03-04T05:59:58;67143.94;;;-0.50;100.00
36354;BME280;22383;51.114;13.666;2023-03-04T06:02:25;67142.13;;;-0.47;100.00
36354;BME280;22383;51.114;13.666;2023-03-04T06:04:53;67150.47;;;-0.46;100.00
36354;BME280;22383;51.114;13.666;2023-03-04T06:07:20;67146.97;;;-0.45;100.00
36354;BME280;22383;51.114;13.666;2023-03-04T06:09:48;67149.56;;;-0.45;100.00
36354;BME280;22383;51.114;13.666;2023-03-04T06:12:15;67153.31;;;-0.44;100.00
36354;BME280;22383;51.114;13.666;2023-03-04T06:14:43;67154.06;;;-0.41;100.00
36354;BME280;22383;51.114;13.666;2023-03-04T06:17:10;67152.03;;;-0.40;100.00
36354;BME280;22383;51.114;13.666;2023-03-04T06:19:38;67157.06;;;-0.35;100.00
36354;BME280;22383;51.114;13.666;2023-03-04T06:22:08;67155.59;;;-0.34;100.00
36354;BME280;22383;51.114;13.666;2023-03-04T06:24:36;67161.91;;;-0.33;100.00
36354;BME280;22383;51.114;13.666;2023-03-04T06:27:04;67163.59;;;-0.32;100.00
36354;BME280;22383;51.114;13.666;2023-03-04T06:29:32;67161.78;;;-0.29;100.00
36354;BME280;22383;51.114;13.666;2023-03-04T06:31:59;67168.31;;;-0.25;100.00
36354;BME280;22383;51.114;13.666;2023-03-04T06:34:27;67167.75;;;-0.26;100.00
36354;BME280;22383;51.114;13.666;2023-03-04T06:36:56;67173.16;;;-0.23;100.00
36354;BME280;22383;51.114;13.666;2023-03-04T06:39:23;67172.25;;;-0.22;100.00
36354;BME280;22383;51.114;13.666;2023-03-04T06:41:50;67177.66;;;-0.19;100.00
36354;BME280;22383;51.114;13.666;2023-03-04T06:44:18;67176.19;;;-0.18;100.00
36354;BME280;22383;51.114;13.666;2023-03-04T06:46:45;67175.81;;;-0.16;100.00
36354;BME280;22383;51.114;13.666;2023-03-04T06:49:13;67181.03;;;-0.16;100.00
36354;BME280;22383;51.114;13.666;2023-03-04T06:51:41;67183.84;;;-0.13;100.00
36354;BME280;22383;51.114;13.666;2023-03-04T06:54:08;67180.34;;;-0.12;100.00
36354;BME280;22383;51.114;13.666;2023-03-04T06:56:36;67178.66;;;-0.13;100.00
36354;BME280;22383;51.114;13.666;2023-03-04T06:59:03;67179.19;;;-0.13;100.00
36354;BME280;22383;51.114;13.666;2023-03-04T07:01:31;67179.19;;;-0.13;100.00
36354;BME280;22383;51.114;13.666;2023-03-04T07:03:58;67180.88;;;-0.11;100.00
36354;BME280;22383;51.114;13.666;2023-03-04T07:06:27;67185.19;;;-0.10;100.00
36354;BME280;22383;51.114;13.666;2023-03-04T07:08:56;67186.09;;;-0.11;100.00
36354;BME280;22383;51.114;13.666;2023-03-04T07:11:24;67184.63;;;-0.10;100.00
36354;BME280;22383;51.114;13.666;2023-03-04T07:13:52;67179.97;;;-0.10;100.00
36354;BME280;22383;51.114;13.666;2023-03-04T07:16:21;67190.03;;;-0.08;100.00
36354;BME280;22383;51.114;13.666;2023-03-04T07:18:49;67188.56;;;-0.07;100.00
36354;BME280;22383;51.114;13.666;2023-03-04T07:21:17;67189.09;;;-0.06;100.00
36354;BME280;22383;51.114;13.666;2023-03-04T07:23:46;67187.63;;;-0.05;100.00
36354;BME280;22383;51.114;13.666;2023-03-04T07:26:13;67191.91;;;-0.04;100.00
36354;BME280;22383;51.114;13.666;2023-03-04T07:28:41;67195.88;;;0.00;100.00
36354;BME280;22383;51.114;13.666;2023-03-04T07:31:22;67196.97;;;0.01;100.00
36354;BME280;22383;51.114;13.666;2023-03-04T07:33:50;67202.94;;;0.04;100.00
36354;BME280;22383;51.114;13.666;2023-03-04T07:36:18;67199.44;;;0.06;100.00
36354;BME280;22383;51.114;13.666;2023-03-04T07:38:47;67203.72;;;0.07;100.00
36354;BME280;22383;51.114;13.666;2023-03-04T07:41:16;67202.25;;;0.08;100.00
36354;BME280;22383;51.114;13.666;2023-03-04T07:43:44;67205.41;;;0.09;100.00
36354;BME280;22383;51.114;13.666;2023-03-04T07:46:12;67205.06;;;0.11;100.00
36354;BME280;22383;51.114;13.666;2023-03-04T07:48:39;67209.00;;;0.14;100.00
36354;BME280;22383;51.114;13.666;2023-03-04T07:53:39;67216.63;;;0.19;100.00
36354;BME280;22383;51.114;13.666;2023-03-04T07:56:10;67215.72;;;0.21;100.00
36354;BME280;22383;51.114;13.666;2023-03-04T07:58:38;67221.50;;;0.21;100.00
36354;BME280;22383;51.114;13.666;2023-03-04T08:01:22;67224.50;;;0.26;100.00
36354;BME280;22383;51.114;13.666;2023-03-04T08:03:49;67235.00;;;0.33;100.00
36354;BME280;22383;51.114;13.666;2023-03-04T08:06:19;67239.69;;;0.40;100.00
36354;BME280;22383;51.114;13.666;2023-03-04T08:08:47;67245.88;;;0.46;100.00
36354;BME280;22383;51.114;13.666;2023-03-04T08:11:20;67248.53;;;0.53;100.00
36354;BME280;22383;51.114;13.666;2023-03-04T08:13:48;67263.09;;;0.59;100.00
36354;BME280;22383;51.114;13.666;2023-03-04T08:16:18;67258.81;;;0.57;100.00
36354;BME280;22383;51.114;13.666;2023-03-04T08:18:48;67258.25;;;0.57;100.00
36354;BME280;22383;51.114;13.666;2023-03-04T08:21:18;67262.19;;;0.61;100.00
36354;BME280;22383;51.114;13.666;2023-03-04T08:23:46;67255.09;;;0.56;100.00
36354;BME280;22383;51.114;13.666;2023-03-04T08:26:18;67258.44;;;0.60;100.00
36354;BME280;22383;51.114;13.666;2023-03-04T08:28:46;67267.25;;;0.65;100.00
36354;BME280;22383;51.114;13.666;2023-03-04T08:31:16;67262.41;;;0.63;100.00
36354;BME280;22383;51.114;13.666;2023-03-04T08:33:45;67271.53;;;0.67;100.00
36354;BME280;22383;51.114;13.666;2023-03-04T08:36:14;67267.81;;;0.66;100.00
36354;BME280;22383;51.114;13.666;2023-03-04T08:38:42;67265.56;;;0.64;100.00
36354;BME280;22383;51.114;13.666;2023-03-04T08:41:10;67267.25;;;0.65;100.00
36354;BME280;22383;51.114;13.666;2023-03-04T08:43:38;67262.41;;;0.63;100.00
36354;BME280;22383;51.114;13.666;2023-03-04T08:46:06;67259.22;;;0.63;100.00
36354;BME280;22383;51.114;13.666;2023-03-04T08:48:36;67264.63;;;0.65;100.00
36354;BME280;22383;51.114;13.666;2023-03-04T08:51:13;67267.03;;;0.63;100.00
36354;BME280;22383;51.114;13.666;2023-03-04T08:53:42;67273.06;;;0.73;100.00
36354;BME280;22383;51.114;13.666;2023-03-04T08:56:10;67273.63;;;0.73;100.00
36354;BME280;22383;51.114;13.666;2023-03-04T08:58:38;67278.34;;;0.80;100.00
36354;BME280;22383;51.114;13.666;2023-03-04T09:01:11;67284.81;;;0.77;100.00
36354;BME280;22383;51.114;13.666;2023-03-04T09:03:39;67275.66;;;0.73;100.00
36354;BME280;22383;51.114;13.666;2023-03-04T09:06:08;67276.44;;;0.76;100.00
36354;BME280;22383;51.114;13.666;2023-03-04T09:08:36;67279.97;;;0.74;100.00
36354;BME280;22383;51.114;13.666;2023-03-04T09:11:04;67270.81;;;0.71;100.00
36354;BME280;22383;51.114;13.666;2023-03-04T09:13:32;67273.06;;;0.73;100.00
36354;BME280;22383;51.114;13.666;2023-03-04T09:15:59;67277.91;;;0.75;100.00
36354;BME280;22383;51.114;13.666;2023-03-04T09:18:27;67274.56;;;0.72;100.00
36354;BME280;22383;51.114;13.666;2023-03-04T09:20:55;67275.88;;;0.75;100.00
36354;BME280;22383;51.114;13.666;2023-03-04T09:23:22;67286.69;;;0.81;100.00
36354;BME280;22383;51.114;13.666;2023-03-04T09:25:49;67284.69;;;0.81;100.00
36354;BME280;22383;51.114;13.666;2023-03-04T09:28:18;67284.09;;;0.81;100.00
36354;BME280;22383;51.114;13.666;2023-03-04T09:30:47;67291.78;;;0.85;100.00
36354;BME280;22383;51.114;13.666;2023-03-04T09:33:15;67295.72;;;0.89;100.00
36354;BME280;22383;51.114;13.666;2023-03-04T09:35:43;67295.94;;;0.91;100.00
36354;BME280;22383;51.114;13.666;2023-03-04T09:38:10;67297.25;;;0.95;100.00
36354;BME280;22383;51.114;13.666;2023-03-04T09:40:41;67297.94;;;0.91;100.00
36354;BME280;22383;51.114;13.666;2023-03-04T09:43:16;67294.78;;;0.90;100.00
36354;BME280;22383;51.114;13.666;2023-03-04T09:45:51;67293.09;;;0.89;100.00
36354;BME280;22383;51.114;13.666;2023-03-04T09:48:23;67297.25;;;0.95;100.00
36354;BME280;22383;51.114;13.666;2023-03-04T09:54:01;67301.56;;;0.97;100.00
36354;BME280;22383;51.114;13.666;2023-03-04T09:56:34;67300.97;;;0.96;100.00
36354;BME280;22383;51.114;13.666;2023-03-04T10:01:49;67319.19;;;1.15;100.00
36354;BME280;22383;51.114;13.666;2023-03-04T10:04:35;67331.91;;;1.24;100.00
36354;BME280;22383;51.114;13.666;2023-03-04T10:07:18;67328.19;;;1.23;100.00
36354;BME280;22383;51.114;13.666;2023-03-04T10:09:55;67336.97;;;1.29;100.00
36354;BME280;22383;51.114;13.666;2023-03-04T10:12:28;67336.97;;;1.29;100.00
36354;BME280;22383;51.114;13.666;2023-03-04T10:15:01;67340.91;;;1.32;100.00
36354;BME280;22383;51.114;13.666;2023-03-04T10:17:39;67340.91;;;1.32;100.00
36354;BME280;22383;51.114;13.666;2023-03-04T10:20:16;67340.13;;;1.29;100.00
36354;BME280;22383;51.114;13.666;2023-03-04T10:22:55;67333.81;;;1.28;100.00
36354;BME280;22383;51.114;13.666;2023-03-04T10:25:27;67340.13;;;1.29;100.00
36354;BME280;22383;51.114;13.666;2023-03-04T10:28:10;67343.38;;;1.37;100.00
36354;BME280;22383;51.114;13.666;2023-03-04T10:30:52;67352.19;;;1.43;100.00
36354;BME280;22383;51.114;13.666;2023-03-04T10:33:26;67355.56;;;1.46;100.00
36354;BME280;22383;51.114;13.666;2023-03-04T10:38:57;67341.34;;;1.38;100.00
36354;BME280;22383;51.114;13.666;2023-03-04T10:41:27;67344.50;;;1.38;100.00
36354;BME280;22383;51.114;13.666;2023-03-04T10:46:31;67346.97;;;1.43;100.00
36354;BME280;22383;51.114;13.666;2023-03-04T10:48:59;67359.84;;;1.47;100.00
36354;BME280;22383;51.114;13.666;2023-03-04T10:51:28;67360.97;;;1.48;100.00
36354;BME280;22383;51.114;13.666;2023-03-04T10:56:56;67358.72;;;1.46;100.00
36354;BME280;22383;51.114;13.666;2023-03-04T10:59:38;67360.59;;;1.50;100.00
36354;BME280;22383;51.114;13.666;2023-03-04T11:02:21;67361.03;;;1.56;100.00
36354;BME280;22383;51.114;13.666;2023-03-04T11:07:31;67364.75;;;1.57;100.00
36354;BME280;22383;51.114;13.666;2023-03-04T11:10:38;67370.38;;;1.62;100.00
36354;BME280;22383;51.114;13.666;2023-03-04T11:13:19;67376.56;;;1.67;100.00
36354;BME280;22383;51.114;13.666;2023-03-04T11:18:16;67397.75;;;1.84;100.00
36354;BME280;22383;51.114;13.666;2023-03-04T11:20:48;67419.34;;;2.06;100.00
36354;BME280;22383;51.114;13.666;2023-03-04T11:23:18;67434.34;;;2.18;100.00
36354;BME280;22383;51.114;13.666;2023-03-04T11:25:55;67433.22;;;2.17;100.00
36354;BME280;22383;51.114;13.666;2023-03-04T11:28:28;67437.16;;;2.20;100.00
36354;BME280;22383;51.114;13.666;2023-03-04T11:31:00;67433.44;;;2.19;100.00
36354;BME280;22383;51.114;13.666;2023-03-04T11:38:55;67421.59;;;2.08;100.00
36354;BME280;22383;51.114;13.666;2023-03-04T11:41:35;67419.91;;;2.07;100.00
36354;BME280;22383;51.114;13.666;2023-03-04T11:44:05;67417.81;;;2.00;100.00
36354;BME280;22383;51.114;13.666;2023-03-04T12:07:58;67454.25;;;2.38;100.00
36354;BME280;22383;51.114;13.666;2023-03-04T12:10:41;67472.66;;;2.53;100.00
36354;BME280;22383;51.114;13.666;2023-03-04T12:13:34;67476.22;;;2.58;100.00
36354;BME280;22383;51.114;13.666;2023-03-04T12:16:18;67475.66;;;2.58;100.00
36354;BME280;22383;51.114;13.666;2023-03-04T12:38:59;67504.94;;;2.84;100.00
36354;BME280;22383;51.114;13.666;2023-03-04T12:41:51;67519.19;;;2.93;100.00
36354;BME280;22383;51.114;13.666;2023-03-04T12:44:38;67520.31;;;2.94;100.00
36354;BME280;22383;51.114;13.666;2023-03-04T12:47:22;67509.81;;;2.87;100.00
36354;BME280;22383;51.114;13.666;2023-03-04T12:55:02;67515.81;;;2.90;100.00
36354;BME280;22383;51.114;13.666;2023-03-04T12:57:31;67522.41;;;3.00;100.00
36354;BME280;22383;51.114;13.666;2023-03-04T13:00:31;67526.34;;;3.04;100.00
36354;BME280;22383;51.114;13.666;2023-03-04T13:03:11;67521.84;;;3.00;100.00
36354;BME280;22383;51.114;13.666;2023-03-04T13:11:52;67529.53;;;3.05;100.00
36354;BME280;22383;51.114;13.666;2023-03-04T13:14:24;67525.59;;;3.01;100.00
36354;BME280;22383;51.114;13.666;2023-03-04T13:24:56;67524.47;;;3.00;100.00
36354;BME280;22383;51.114;13.666;2023-03-04T13:28:05;67522.41;;;3.00;100.00
36354;BME280;22383;51.114;13.666;2023-03-04T13:38:22;67558.47;;;3.33;100.00
36354;BME280;22383;51.114;13.666;2023-03-04T13:41:15;67575.19;;;3.46;100.00
36354;BME280;22383;51.114;13.666;2023-03-04T13:43:52;67587.56;;;3.57;100.00
36354;BME280;22383;51.114;13.666;2023-03-04T13:51:26;67595.13;;;3.67;100.00
36354;BME280;22383;51.114;13.666;2023-03-04T13:56:35;67601.88;;;3.73;100.00
36354;BME280;22383;51.114;13.666;2023-03-04T14:04:20;67618.78;;;3.88;100.00
36354;BME280;22383;51.114;13.666;2023-03-04T14:06:49;67615.97;;;3.86;100.00
36354;BME280;22383;51.114;13.666;2023-03-04T14:09:23;67615.97;;;3.86;100.00
36354;BME280;22383;51.114;13.666;2023-03-04T14:11:55;67607.72;;;3.81;100.00
36354;BME280;22383;51.114;13.666;2023-03-04T14:14:26;67608.44;;;3.76;100.00
36354;BME280;22383;51.114;13.666;2023-03-04T14:17:01;67611.06;;;3.76;100.00
36354;BME280;22383;51.114;13.666;2023-03-04T14:19:37;67609.56;;;3.77;100.00
36354;BME280;22383;51.114;13.666;2023-03-04T14:22:28;67610.34;;;3.81;100.00
36354;BME280;22383;51.114;13.666;2023-03-04T14:27:29;67601.31;;;3.72;100.00
36354;BME280;22383;51.114;13.666;2023-03-04T14:30:01;67599.06;;;3.70;100.00
36354;BME280;22383;51.114;13.666;2023-03-04T14:32:30;67608.44;;;3.76;100.00
36354;BME280;22383;51.114;13.666;2023-03-04T14:35:17;67620.63;;;3.85;100.00
36354;BME280;22383;51.114;13.666;2023-03-04T14:38:04;67627.03;;;3.93;100.00
36354;BME280;22383;51.114;13.666;2023-03-04T14:40:41;67627.03;;;3.93;100.00
36354;BME280;22383;51.114;13.666;2023-03-04T14:43:19;67618.22;;;3.88;100.00
36354;BME280;22383;51.114;13.666;2023-03-04T14:45:50;67620.28;;;3.87;100.00
36354;BME280;22383;51.114;13.666;2023-03-04T14:48:30;67612.22;;;3.85;100.00
36354;BME280;22383;51.114;13.666;2023-03-04T14:51:02;67621.78;;;3.86;100.00
36354;BME280;22383;51.114;13.666;2023-03-04T14:53:31;67617.66;;;3.87;100.00